Time;durP1;ratioP1;P1;durP2;ratioP2;P2;SDS_P1;SDS_P2;PMS_P1;PMS_P2;Temp;Humidity;BMP_temperature;BMP_pressure;BME280_temperature;BME280_humidity;BME280_pressure;Samples;Min_cycle;Max_cycle;Signal;HPM_P1;HPM_P2
2021/05/22 00:00:55;;;;;;;3.35;1.20;;;;;;;19.63;44.73;100811.50;5099269;28;20054;-65
2021/05/22 00:03:22;;;;;;;2.25;0.80;;;;;;;19.64;45.41;100838.94;5111515;28;20055;-65
2021/05/22 00:05:49;;;;;;;3.42;0.70;;;;;;;19.60;46.59;100829.56;5093046;28;20051;-65
2021/05/22 00:08:15;;;;;;;4.05;0.80;;;;;;;19.55;47.51;100817.53;5093026;28;20048;-64
2021/05/22 00:10:42;;;;;;;3.45;0.88;;;;;;;19.55;48.73;100798.91;5092871;28;20107;-65
2021/05/22 00:13:09;;;;;;;5.00;1.02;;;;;;;19.55;49.31;100793.56;5092783;28;20481;-66
2021/05/22 00:15:36;;;;;;;1.70;0.80;;;;;;;19.56;48.84;100787.25;5092791;28;20044;-65
2021/05/22 00:18:03;;;;;;;7.07;0.65;;;;;;;19.57;48.40;100777.47;5092266;28;20047;-66
2021/05/22 00:20:29;;;;;;;4.43;0.73;;;;;;;19.57;47.93;100777.47;5092798;28;20048;-65
2021/05/22 00:22:56;;;;;;;2.42;0.60;;;;;;;19.57;47.63;100770.28;5092742;28;20044;-65
2021/05/22 00:25:23;;;;;;;4.05;0.75;;;;;;;19.56;47.48;100755.31;5092687;28;20062;-66
2021/05/22 00:27:49;;;;;;;2.08;0.70;;;;;;;19.57;46.83;100761.47;5092667;28;20048;-65
2021/05/22 00:30:17;;;;;;;1.75;0.52;;;;;;;19.57;46.73;100767.63;5092261;28;20048;-65
2021/05/22 00:32:43;;;;;;;6.30;0.75;;;;;;;19.57;46.15;100769.47;5092386;28;20059;-64
2021/05/22 00:35:10;;;;;;;7.28;0.70;;;;;;;19.56;46.59;100773.13;5092569;28;20048;-65
2021/05/22 00:37:37;;;;;;;1.42;0.73;;;;;;;19.53;46.89;100765.44;5092530;28;20048;-66
2021/05/22 00:40:05;;;;;;;3.33;0.73;;;;;;;19.50;47.50;100769.22;5092413;28;20043;-65
2021/05/22 00:42:33;;;;;;;2.85;0.70;;;;;;;19.49;47.05;100772.84;5092636;28;20051;-65
2021/05/22 00:45:22;;;;;;;2.40;0.68;;;;;;;19.47;46.74;100761.50;5092668;28;20043;-65
2021/05/22 00:47:52;;;;;;;2.50;0.60;;;;;;;19.46;46.14;100761.66;5092431;28;20492;-65
2021/05/22 00:50:26;;;;;;;1.95;0.63;;;;;;;19.45;46.16;100768.78;5092364;28;20048;-65
2021/05/22 00:52:54;;;;;;;1.33;0.70;;;;;;;19.45;46.82;100767.97;5092437;28;20123;-65
2021/05/22 00:55:23;;;;;;;2.17;0.82;;;;;;;19.41;46.84;100754.94;5092365;28;20645;-65
2021/05/22 00:57:50;;;;;;;3.63;0.85;;;;;;;19.40;47.52;100744.44;5092244;28;20506;-67
2021/05/22 01:00:19;;;;;;;3.55;0.75;;;;;;;19.35;47.57;100736.91;5092191;28;20052;-65
2021/05/22 01:02:47;;;;;;;5.60;0.93;;;;;;;19.34;47.58;100723.75;5092239;28;20044;-65
2021/05/22 01:05:15;;;;;;;2.55;0.68;;;;;;;19.32;47.20;100747.00;5092330;28;20405;-65
2021/05/22 01:07:43;;;;;;;1.65;0.93;;;;;;;19.30;47.09;100749.81;5092540;28;20055;-65
2021/05/22 01:10:11;;;;;;;4.05;0.73;;;;;;;19.28;47.36;100727.81;5092272;28;20052;-65
2021/05/22 01:12:43;;;;;;;6.03;1.00;;;;;;;19.27;46.94;100752.72;5092136;28;20048;-65
2021/05/22 01:15:12;;;;;;;2.78;1.02;;;;;;;19.24;46.73;100753.84;5092100;28;20048;-66
2021/05/22 01:17:44;;;;;;;3.45;1.10;;;;;;;19.22;46.88;100752.31;5092218;28;20051;-65
2021/05/22 01:20:13;;;;;;;3.28;0.90;;;;;;;19.19;46.75;100744.66;5092045;28;20048;-65
2021/05/22 01:22:44;;;;;;;3.85;0.95;;;;;;;19.15;46.50;100738.75;5092092;28;20496;-67
2021/05/22 01:25:24;;;;;;;3.35;1.20;;;;;;;19.13;46.70;100743.38;5092006;28;20048;-65
2021/05/22 01:27:52;;;;;;;5.70;1.25;;;;;;;19.11;46.74;100728.53;5092243;28;20055;-65
2021/05/22 01:30:19;;;;;;;2.97;1.10;;;;;;;19.08;46.93;100735.84;5076214;28;20082;-65
2021/05/22 01:32:46;;;;;;;4.50;1.20;;;;;;;19.08;46.68;100724.34;5095731;28;20063;-66
2021/05/22 01:35:15;;;;;;;2.33;0.98;;;;;;;19.06;46.21;100721.00;5095871;28;20408;-66
2021/05/22 01:37:41;;;;;;;2.65;1.10;;;;;;;19.05;46.08;100719.34;5095890;28;20048;-65
2021/05/22 01:40:09;;;;;;;4.07;1.42;;;;;;;19.04;45.81;100741.59;5095735;28;20059;-65
2021/05/22 01:42:37;;;;;;;4.07;1.10;;;;;;;19.03;45.17;100734.59;5095633;28;20052;-64
2021/05/22 01:45:09;;;;;;;2.50;1.00;;;;;;;19.03;45.39;100732.78;5095553;28;20055;-65
2021/05/22 01:47:37;;;;;;;3.40;1.10;;;;;;;19.01;45.39;100726.75;5095696;28;20408;-64
2021/05/22 01:50:04;;;;;;;3.25;1.30;;;;;;;19.00;45.35;100717.09;5094599;28;20051;-65
2021/05/22 01:52:35;;;;;;;4.00;1.15;;;;;;;18.99;45.19;100717.25;5095716;28;20040;-67
2021/05/22 01:55:03;;;;;;;2.78;1.10;;;;;;;18.97;45.53;100727.16;5095616;28;20040;-64
2021/05/22 01:57:33;;;;;;;2.42;1.15;;;;;;;18.96;45.61;100725.47;5095606;28;20048;-64
2021/05/22 02:00:03;;;;;;;2.45;1.25;;;;;;;18.93;45.37;100735.44;5095366;28;20052;-65
2021/05/22 02:02:30;;;;;;;4.50;1.05;;;;;;;18.91;44.98;100745.38;5095427;28;20047;-64
2021/05/22 02:04:59;;;;;;;5.38;1.10;;;;;;;18.92;44.79;100756.88;5095296;28;20562;-65
2021/05/22 02:07:28;;;;;;;6.15;1.20;;;;;;;18.90;44.50;100750.84;5095177;28;20078;-68
2021/05/22 02:09:56;;;;;;;3.45;1.73;;;;;;;18.89;44.73;100747.31;5077290;28;20048;-66
2021/05/22 02:12:24;;;;;;;5.05;1.30;;;;;;;18.87;44.94;100751.09;5095040;28;20134;-66
2021/05/22 02:14:53;;;;;;;1.80;1.10;;;;;;;18.87;45.19;100753.75;5095011;28;20051;-64
2021/05/22 02:17:22;;;;;;;3.83;1.42;;;;;;;18.85;45.60;100753.03;5095088;28;20051;-64
2021/05/22 02:19:51;;;;;;;7.68;1.30;;;;;;;18.81;46.25;100749.81;5094956;28;20056;-64
2021/05/22 02:22:25;;;;;;;2.60;1.15;;;;;;;18.79;47.24;100743.78;5095007;28;20051;-65
2021/05/22 02:25:00;;;;;;;5.10;1.25;;;;;;;18.75;47.02;100737.94;5094301;28;20048;-64
2021/05/22 02:27:36;;;;;;;3.38;1.40;;;;;;;18.73;47.45;100753.19;5094511;28;20051;-64
2021/05/22 02:30:07;;;;;;;2.33;1.10;;;;;;;18.70;47.83;100742.00;5094700;28;20052;-64
2021/05/22 02:32:38;;;;;;;6.00;1.40;;;;;;;18.61;48.07;100741.00;5094535;28;20071;-64
2021/05/22 02:35:07;;;;;;;6.30;1.08;;;;;;;18.52;48.89;100739.19;5094734;28;20044;-64
2021/05/22 02:37:36;;;;;;;4.20;1.45;;;;;;;18.49;49.20;100723.53;5094676;28;20048;-65
2021/05/22 02:40:08;;;;;;;4.28;1.42;;;;;;;18.47;48.90;100723.66;5094156;28;20792;-64
2021/05/22 02:42:37;;;;;;;3.47;1.10;;;;;;;18.48;48.79;100720.03;5094648;28;20586;-65
2021/05/22 02:45:07;;;;;;;4.32;1.13;;;;;;;18.51;48.57;100724.22;5094513;28;20055;-65
2021/05/22 02:47:34;;;;;;;3.60;1.10;;;;;;;18.51;48.57;100705.63;5094689;28;20054;-64
2021/05/22 02:50:06;;;;;;;4.28;1.55;;;;;;;18.51;48.56;100702.97;5094479;28;20048;-64
2021/05/22 02:52:36;;;;;;;5.75;1.50;;;;;;;18.51;48.27;100700.31;5094478;28;20055;-63
2021/05/22 02:55:06;;;;;;;5.32;1.50;;;;;;;18.50;48.20;100712.78;5094441;28;20048;-64
2021/05/22 02:57:35;;;;;;;4.22;1.65;;;;;;;18.51;48.03;100710.94;5094431;28;20052;-65
2021/05/22 03:00:03;;;;;;;5.97;1.23;;;;;;;18.51;48.05;100705.63;5094193;28;20063;-64
2021/05/22 03:02:31;;;;;;;3.75;1.40;;;;;;;18.51;48.36;100708.28;5093228;28;20488;-65
2021/05/22 03:04:57;;;;;;;3.58;1.52;;;;;;;18.50;47.98;100706.59;5089618;28;20439;-65
2021/05/22 03:07:24;;;;;;;3.95;1.40;;;;;;;18.51;48.31;100713.59;5090357;28;20450;-65
2021/05/22 03:09:51;;;;;;;5.88;1.30;;;;;;;18.51;48.25;100708.28;5090801;28;20081;-66
2021/05/22 03:12:20;;;;;;;3.65;1.27;;;;;;;18.50;48.21;100695.97;5090825;28;20048;-65
2021/05/22 03:14:47;;;;;;;2.53;1.30;;;;;;;18.50;48.21;100688.00;5090645;28;20044;-65
2021/05/22 03:17:13;;;;;;;5.97;1.70;;;;;;;18.49;48.12;100684.50;5090739;28;20052;-64
2021/05/22 03:19:40;;;;;;;4.20;1.80;;;;;;;18.50;48.06;100688.84;5090260;28;20044;-65
2021/05/22 03:22:07;;;;;;;3.85;1.90;;;;;;;18.49;48.33;100703.13;5090989;28;20058;-64
2021/05/22 03:24:34;;;;;;;2.85;1.42;;;;;;;18.49;48.17;100705.78;5090723;28;20127;-65
2021/05/22 03:27:00;;;;;;;4.85;1.35;;;;;;;18.47;48.27;100713.03;5090577;28;20052;-65
2021/05/22 03:29:27;;;;;;;5.03;1.10;;;;;;;18.47;48.38;100717.50;5089649;28;20059;-64
2021/05/22 03:31:54;;;;;;;4.25;1.60;;;;;;;18.45;48.20;100715.00;5090405;28;20052;-65
2021/05/22 03:34:20;;;;;;;4.35;1.20;;;;;;;18.43;48.16;100711.63;5090091;28;20051;-65
2021/05/22 03:36:47;;;;;;;3.53;1.30;;;;;;;18.42;47.88;100724.09;5090354;28;20048;-68
2021/05/22 03:39:14;;;;;;;3.55;1.52;;;;;;;18.43;48.29;100723.09;5089990;28;20211;-65
2021/05/22 03:41:40;;;;;;;5.22;1.25;;;;;;;18.41;47.98;100722.41;5089994;28;20048;-65
2021/05/22 03:44:07;;;;;;;1.85;1.10;;;;;;;18.41;48.37;100716.25;5090193;28;20048;-65
2021/05/22 03:46:34;;;;;;;2.22;0.90;;;;;;;18.40;48.33;100711.94;5090181;28;20040;-66
2021/05/22 03:49:01;;;;;;;3.65;1.17;;;;;;;18.40;47.98;100709.28;5089858;28;20055;-64
2021/05/22 03:51:27;;;;;;;5.18;1.48;;;;;;;18.41;47.98;100726.88;5089753;28;20044;-65
2021/05/22 03:53:54;;;;;;;4.15;1.10;;;;;;;18.41;48.09;100737.50;5089256;28;20048;-67
2021/05/22 03:56:21;;;;;;;3.50;1.23;;;;;;;18.40;48.32;100741.97;5089768;28;20051;-65
2021/05/22 03:58:47;;;;;;;4.22;1.10;;;;;;;18.41;48.03;100748.13;5089911;28;20040;-64
2021/05/22 04:01:14;;;;;;;4.70;1.40;;;;;;;18.40;48.06;100741.16;5089599;28;20044;-65
2021/05/22 04:03:40;;;;;;;3.40;0.82;;;;;;;18.39;48.16;100734.16;5089825;28;20044;-65
2021/05/22 04:06:07;;;;;;;6.38;1.10;;;;;;;18.37;47.83;100739.63;5089786;28;20093;-65
2021/05/22 04:08:34;;;;;;;5.28;1.10;;;;;;;18.36;47.67;100729.09;5089709;28;20040;-65
2021/05/22 04:11:00;;;;;;;4.38;1.35;;;;;;;18.36;47.61;100747.69;5089635;28;20051;-65
2021/05/22 04:13:27;;;;;;;4.13;0.90;;;;;;;18.34;47.84;100755.81;5089555;28;20040;-65
2021/05/22 04:15:54;;;;;;;2.78;0.80;;;;;;;18.34;47.55;100768.28;5089682;28;20051;-64
2021/05/22 04:18:20;;;;;;;3.40;0.93;;;;;;;18.34;47.51;100762.97;5089435;28;20052;-65
2021/05/22 04:20:47;;;;;;;2.20;0.50;;;;;;;18.31;47.48;100755.25;5089393;28;20052;-65
2021/05/22 04:23:14;;;;;;;2.67;0.80;;;;;;;18.31;47.42;100765.88;5089322;28;20040;-65
2021/05/22 04:25:41;;;;;;;4.10;0.90;;;;;;;18.31;47.60;100763.22;5089411;28;20048;-65
2021/05/22 04:28:08;;;;;;;3.35;0.90;;;;;;;18.30;47.73;100758.88;5089734;28;20059;-64
2021/05/22 04:30:35;;;;;;;2.13;0.85;;;;;;;18.29;47.46;100755.38;5089649;28;20603;-65
2021/05/22 04:33:03;;;;;;;1.50;0.77;;;;;;;18.29;47.92;100750.06;5089305;28;20051;-64
2021/05/22 04:35:29;;;;;;;2.58;0.75;;;;;;;18.29;47.83;100760.69;5089285;28;20052;-65
2021/05/22 04:37:56;;;;;;;5.10;0.90;;;;;;;18.28;47.80;100761.66;5089378;28;20404;-64
2021/05/22 04:40:23;;;;;;;2.55;0.80;;;;;;;18.27;47.49;100773.25;5071837;28;20408;-64
2021/05/22 04:42:49;;;;;;;3.55;0.68;;;;;;;18.27;47.37;100784.75;5089274;28;20044;-65
2021/05/22 04:45:16;;;;;;;7.40;0.70;;;;;;;18.25;47.57;100776.06;5089214;28;20048;-65
2021/05/22 04:47:43;;;;;;;2.05;0.60;;;;;;;18.26;47.67;100766.28;5089212;28;20048;-64
2021/05/22 04:50:10;;;;;;;4.63;1.48;;;;;;;18.26;47.86;100774.28;5089924;28;20511;-65
2021/05/22 04:52:38;;;;;;;4.13;1.13;;;;;;;18.27;47.80;100775.91;5089355;28;20055;-65
2021/05/22 04:55:06;;;;;;;2.50;0.60;;;;;;;18.27;47.55;100775.91;5089306;28;20055;-65
2021/05/22 04:57:33;;;;;;;2.08;0.70;;;;;;;18.26;47.64;100777.75;5088744;28;20044;-65
2021/05/22 05:00:00;;;;;;;2.30;0.88;;;;;;;18.26;48.19;100774.28;5088947;28;20412;-65
2021/05/22 05:02:26;;;;;;;2.85;0.90;;;;;;;18.26;48.41;100777.75;5088779;28;20044;-65
2021/05/22 05:04:53;;;;;;;2.03;0.93;;;;;;;18.27;48.23;100782.09;5092062;28;20504;-66
2021/05/22 05:07:20;;;;;;;2.75;0.90;;;;;;;18.27;48.78;100802.47;5092876;28;20040;-66
2021/05/22 05:09:55;;;;;;;3.45;1.00;;;;;;;18.23;49.58;100806.41;5093107;28;20056;-64
2021/05/22 05:12:27;;;;;;;5.13;0.90;;;;;;;18.21;49.85;100800.41;5092468;28;20076;-65
2021/05/22 05:14:54;;;;;;;3.08;0.88;;;;;;;18.21;49.80;100798.56;5092666;28;20471;-65
2021/05/22 05:17:20;;;;;;;3.45;0.88;;;;;;;18.22;49.49;100800.25;5093253;28;20047;-64
2021/05/22 05:19:47;;;;;;;2.15;1.02;;;;;;;18.24;49.68;100803.59;5093157;28;20048;-66
2021/05/22 05:22:14;;;;;;;2.53;1.00;;;;;;;18.25;49.56;100799.16;5092755;28;20048;-65
2021/05/22 05:24:40;;;;;;;3.42;1.02;;;;;;;18.26;49.57;100798.19;5092784;28;20058;-65
2021/05/22 05:27:07;;;;;;;4.95;1.25;;;;;;;18.28;49.50;100812.13;5092795;28;20047;-65
2021/05/22 05:29:39;;;;;;;1.83;0.90;;;;;;;18.26;50.02;100806.97;5092785;28;20048;-64
2021/05/22 05:32:08;;;;;;;3.80;1.00;;;;;;;18.28;50.26;100814.78;5092551;28;20129;-65
2021/05/22 05:34:35;;;;;;;3.05;1.00;;;;;;;18.28;50.22;100817.44;5092717;28;20454;-65
2021/05/22 05:37:02;;;;;;;6.15;1.25;;;;;;;18.29;49.68;100816.50;5092833;28;20048;-65
2021/05/22 05:39:28;;;;;;;2.67;0.90;;;;;;;18.30;49.92;100822.63;5092500;28;20062;-69
2021/05/22 05:41:55;;;;;;;3.33;1.40;;;;;;;18.29;49.42;100827.09;5092489;28;20051;-65
2021/05/22 05:44:22;;;;;;;5.07;1.40;;;;;;;18.27;49.71;100839.69;5100269;28;20051;-65
2021/05/22 05:46:48;;;;;;;3.05;1.30;;;;;;;18.19;50.36;100843.00;5102281;28;20044;-64
2021/05/22 05:49:15;;;;;;;6.43;1.42;;;;;;;18.11;50.93;100843.69;5103264;28;20051;-65
2021/05/22 05:51:42;;;;;;;5.15;1.40;;;;;;;18.09;51.14;100829.72;5101781;28;20108;-67
2021/05/22 05:54:09;;;;;;;6.13;1.40;;;;;;;18.13;51.13;100832.09;5102774;28;20043;-72
2021/05/22 05:56:36;;;;;;;6.00;1.60;;;;;;;18.15;51.20;100844.25;5085540;28;20506;-65
2021/05/22 05:59:02;;;;;;;4.63;1.20;;;;;;;18.18;50.71;100840.50;5101471;28;20047;-68
2021/05/22 06:01:30;;;;;;;5.97;1.40;;;;;;;18.20;50.55;100833.25;5103021;28;20036;-66
2021/05/22 06:03:57;;;;;;;3.30;1.05;;;;;;;18.22;50.11;100833.94;5099385;28;20040;-65
2021/05/22 06:06:24;;;;;;;3.90;1.55;;;;;;;18.23;50.34;100835.63;5102179;28;20044;-65
2021/05/22 06:08:50;;;;;;;5.30;2.03;;;;;;;18.24;49.94;100851.41;5100511;28;20048;-64
2021/05/22 06:11:19;;;;;;;3.85;1.70;;;;;;;18.19;50.31;100847.50;5101923;28;20051;-71
2021/05/22 06:13:46;;;;;;;6.45;1.52;;;;;;;18.15;51.24;100865.50;5102598;28;20043;-64
2021/05/22 06:16:21;;;;;;;6.60;1.77;;;;;;;18.13;51.85;100851.50;5090726;28;20044;-66
2021/05/22 06:18:47;;;;;;;4.28;1.95;;;;;;;18.15;52.19;100849.56;5091789;28;20040;-66
2021/05/22 06:21:15;;;;;;;7.03;2.53;;;;;;;18.17;52.20;100839.66;5099653;28;20062;-67
2021/05/22 06:23:42;;;;;;;6.47;2.30;;;;;;;18.20;51.63;100834.06;5102056;28;20071;-66
2021/05/22 06:26:08;;;;;;;5.35;2.22;;;;;;;18.25;51.33;100837.16;5100197;28;20044;-66
2021/05/22 06:28:35;;;;;;;5.22;2.00;;;;;;;18.27;50.96;100848.50;5102022;28;20040;-67
2021/05/22 06:31:04;;;;;;;7.00;1.83;;;;;;;18.30;50.62;100863.34;5101542;28;20044;-67
2021/05/22 06:33:32;;;;;;;5.32;1.60;;;;;;;18.32;50.65;100874.69;5099609;28;20051;-68
2021/05/22 06:35:59;;;;;;;5.40;2.20;;;;;;;18.33;51.20;100881.66;5099457;28;20048;-74
2021/05/22 06:38:26;;;;;;;3.78;1.15;;;;;;;18.28;51.69;100882.06;5099886;28;20402;-67
2021/05/22 06:40:53;;;;;;;5.97;1.92;;;;;;;18.28;52.19;100887.38;5098935;28;20510;-73
2021/05/22 06:43:20;;;;;;;5.80;1.50;;;;;;;18.32;52.39;100889.75;5100888;28;20051;-66
2021/05/22 06:45:58;;;;;;;5.68;1.48;;;;;;;18.36;52.08;100881.41;5100483;28;20040;-66
2021/05/22 06:48:25;;;;;;;8.18;1.33;;;;;;;18.42;52.24;100882.66;5108414;28;20081;-70
2021/05/22 06:50:53;;;;;;;3.78;1.52;;;;;;;18.46;52.10;100883.25;5101246;28;20044;-67
2021/05/22 06:53:20;;;;;;;3.13;1.25;;;;;;;18.51;51.47;100881.00;5107543;28;20058;-67
2021/05/22 06:55:46;;;;;;;7.55;1.48;;;;;;;18.58;50.74;100883.00;5111296;28;20062;-66
2021/05/22 06:58:13;;;;;;;3.13;1.13;;;;;;;18.66;50.35;100878.81;5111315;28;20043;-70
2021/05/22 07:00:40;;;;;;;4.18;0.95;;;;;;;18.71;50.13;100877.41;5111391;28;20056;-65
2021/05/22 07:03:07;;;;;;;3.35;1.33;;;;;;;18.74;49.59;100882.47;5111504;28;20051;-67
2021/05/22 07:05:33;;;;;;;5.65;1.08;;;;;;;18.76;49.53;100885.81;5111307;28;20047;-67
2021/05/22 07:08:02;;;;;;;2.60;1.20;;;;;;;18.79;49.03;100897.16;5110906;28;20047;-65
2021/05/22 07:10:29;;;;;;;5.53;1.30;;;;;;;18.78;48.79;100888.38;5109954;28;20163;-66
2021/05/22 07:12:55;;;;;;;3.80;1.10;;;;;;;18.81;48.54;100889.91;5090492;28;20404;-64
2021/05/22 07:15:22;;;;;;;6.80;1.70;;;;;;;18.85;48.23;100896.63;5090589;28;20047;-64
2021/05/22 07:17:49;;;;;;;4.38;1.30;;;;;;;18.93;48.21;100888.81;5090519;28;20044;-65
2021/05/22 07:20:16;;;;;;;3.88;1.35;;;;;;;19.05;48.03;100885.06;5096531;28;20043;-67
2021/05/22 07:22:43;;;;;;;3.05;1.42;;;;;;;19.15;48.04;100884.25;5095700;28;20051;-71
2021/05/22 07:25:10;;;;;;;3.63;1.23;;;;;;;19.25;47.98;100880.59;5098439;28;20044;-66
2021/05/22 07:27:37;;;;;;;6.50;1.50;;;;;;;19.44;47.72;100883.38;5103909;28;20042;-67
2021/05/22 07:30:08;;;;;;;7.32;1.83;;;;;;;19.54;47.84;100873.56;5109539;28;20671;-70
2021/05/22 07:32:37;;;;;;;5.65;2.05;;;;;;;19.64;47.41;100884.19;5104299;28;20055;-64
2021/05/22 07:35:06;;;;;;;3.53;1.55;;;;;;;19.73;47.79;100880.66;5097238;28;20052;-65
2021/05/22 07:37:33;;;;;;;5.85;2.22;;;;;;;19.82;47.45;100879.84;5099560;28;20055;-65
2021/05/22 07:40:00;;;;;;;6.07;1.90;;;;;;;19.89;47.62;100882.78;5097806;28;20040;-64
2021/05/22 07:42:27;;;;;;;4.13;1.83;;;;;;;19.96;47.57;100891.88;5099920;28;20043;-66
2021/05/22 07:44:55;;;;;;;6.75;2.00;;;;;;;20.04;47.80;100886.63;5098982;28;20040;-65
2021/05/22 07:47:22;;;;;;;4.32;2.00;;;;;;;20.12;48.07;100883.25;5089946;28;20051;-68
2021/05/22 07:49:50;;;;;;;6.57;2.50;;;;;;;20.18;48.04;100881.84;5089562;28;20040;-65
2021/05/22 07:52:21;;;;;;;5.90;2.30;;;;;;;20.22;48.54;100877.88;5089371;28;20044;-65
2021/05/22 07:54:49;;;;;;;6.13;2.08;;;;;;;20.32;48.69;100868.03;5103866;28;20044;-67
2021/05/22 07:57:16;;;;;;;4.82;2.80;;;;;;;20.38;48.53;100861.28;5109273;28;20065;-64
2021/05/22 07:59:43;;;;;;;9.27;2.53;;;;;;;20.39;49.03;100866.44;5109375;28;20067;-63
2021/05/22 08:02:10;;;;;;;8.15;2.50;;;;;;;20.44;48.83;100870.50;5109329;28;20051;-65
2021/05/22 08:04:37;;;;;;;6.85;2.60;;;;;;;20.49;48.62;100871.72;5110081;28;20330;-65
2021/05/22 08:07:04;;;;;;;3.92;1.90;;;;;;;20.57;48.46;100881.66;5109560;28;20487;-63
2021/05/22 08:09:30;;;;;;;4.88;1.92;;;;;;;20.67;48.25;100881.56;5094518;28;20048;-65
2021/05/22 08:11:57;;;;;;;4.70;1.80;;;;;;;20.76;48.20;100879.88;5089415;28;20134;-74
2021/05/22 08:14:26;;;;;;;4.15;1.90;;;;;;;20.82;47.34;100888.13;5089368;28;20044;-74
2021/05/22 08:16:53;;;;;;;6.57;2.30;;;;;;;20.88;47.02;100890.16;5091825;28;20040;-64
2021/05/22 08:19:19;;;;;;;3.88;1.98;;;;;;;20.97;46.47;100896.44;5089357;28;20044;-65
2021/05/22 08:21:46;;;;;;;4.53;2.30;;;;;;;21.07;46.16;100907.03;5089341;28;20051;-63
2021/05/22 08:24:13;;;;;;;5.68;2.35;;;;;;;21.19;46.27;100907.63;5093354;28;20046;-64
2021/05/22 08:26:42;;;;;;;6.47;2.00;;;;;;;21.33;45.96;100914.28;5103575;28;20047;-65
2021/05/22 08:29:29;;;;;;;5.32;1.98;;;;;;;21.51;46.10;100908.94;5089430;28;20048;-75
2021/05/22 08:31:55;;;;;;;6.78;2.20;;;;;;;21.71;45.61;100909.59;5089235;28;20058;-65
2021/05/22 08:34:25;;;;;;;6.20;1.95;;;;;;;21.74;45.54;100903.97;5089109;28;20150;-66
2021/05/22 08:36:52;;;;;;;7.15;2.90;;;;;;;21.72;45.33;100911.28;5089528;28;20050;-64
2021/05/22 08:39:20;;;;;;;6.20;1.92;;;;;;;21.59;45.82;100916.22;5098064;28;20075;-64
2021/05/22 08:41:50;;;;;;;5.10;1.88;;;;;;;21.40;45.87;100914.53;5099379;28;20055;-64
2021/05/22 08:44:17;;;;;;;5.97;2.08;;;;;;;21.26;45.94;100911.38;5091329;28;20051;-65
2021/05/22 08:46:47;;;;;;;5.63;1.98;;;;;;;21.17;45.97;100909.66;5099389;28;20130;-72
2021/05/22 08:49:14;;;;;;;6.47;2.28;;;;;;;21.12;46.24;100914.59;5109133;28;20051;-65
2021/05/22 08:51:42;;;;;;;3.72;1.80;;;;;;;21.09;46.27;100905.06;5100145;28;20044;-67
2021/05/22 08:54:09;;;;;;;3.92;1.70;;;;;;;21.07;46.04;100908.88;5106481;28;20044;-70
2021/05/22 08:56:36;;;;;;;3.65;1.70;;;;;;;21.08;46.07;100905.19;5101721;28;20404;-64
2021/05/22 08:59:03;;;;;;;5.50;2.00;;;;;;;21.06;45.96;100908.03;5079535;28;20048;-65
2021/05/22 09:01:30;;;;;;;6.35;2.28;;;;;;;21.06;45.37;100907.19;5087170;28;20048;-65
2021/05/22 09:03:57;;;;;;;4.90;2.05;;;;;;;21.09;45.26;100907.75;5088378;28;20052;-66
2021/05/22 09:06:24;;;;;;;6.13;1.85;;;;;;;21.11;45.13;100918.25;5088792;28;20405;-64
2021/05/22 09:09:03;;;;;;;3.60;1.80;;;;;;;21.14;44.99;100908.13;5088914;28;20404;-65
2021/05/22 09:11:45;;;;;;;4.82;2.40;;;;;;;21.18;45.10;100904.16;5088968;28;20056;-64
2021/05/22 09:14:38;;;;;;;6.85;2.08;;;;;;;21.20;45.02;100918.19;5088734;28;20044;-65
2021/05/22 09:17:07;;;;;;;4.70;1.20;;;;;;;21.14;44.76;100912.59;5088975;28;20048;-65
2021/05/22 09:19:34;;;;;;;3.83;1.33;;;;;;;21.12;44.44;100925.28;5088982;28;20040;-64
2021/05/22 09:22:24;;;;;;;4.50;1.40;;;;;;;21.12;44.22;100918.09;5088587;28;20048;-64
2021/05/22 09:25:01;;;;;;;3.35;1.38;;;;;;;21.13;43.61;100910.94;5088632;28;20052;-65
2021/05/22 09:27:36;;;;;;;6.40;1.55;;;;;;;21.23;44.10;100903.69;5088697;28;20051;-65
2021/05/22 09:30:15;;;;;;;8.90;1.75;;;;;;;21.30;43.66;100914.59;5088449;28;20047;-65
2021/05/22 09:32:44;;;;;;;3.65;1.27;;;;;;;21.55;42.60;100907.66;5088539;28;20135;-65
2021/05/22 09:35:12;;;;;;;3.75;1.05;;;;;;;21.82;42.62;100903.19;5088435;28;20488;-64
2021/05/22 09:37:46;;;;;;;3.58;1.20;;;;;;;21.96;41.80;100904.44;5088861;28;20484;-64
2021/05/22 09:40:19;;;;;;;5.03;1.20;;;;;;;21.92;42.12;100903.91;5088540;28;20048;-64
2021/05/22 09:42:46;;;;;;;3.65;1.33;;;;;;;21.84;42.74;100906.53;5088697;28;20048;-67
2021/05/22 09:45:26;;;;;;;3.75;1.30;;;;;;;21.78;42.57;100902.66;5088641;28;20040;-67
2021/05/22 09:47:55;;;;;;;2.92;0.90;;;;;;;21.78;42.37;100910.66;5088742;28;20067;-67
2021/05/22 09:50:30;;;;;;;3.88;1.13;;;;;;;21.72;42.28;100913.13;5089055;28;20496;-67
2021/05/22 09:52:58;;;;;;;2.53;1.00;;;;;;;21.71;42.46;100922.13;5092477;28;20051;-67
2021/05/22 09:55:25;;;;;;;4.18;0.98;;;;;;;21.66;42.00;100920.78;5092275;28;20074;-67
2021/05/22 09:57:55;;;;;;;6.97;1.23;;;;;;;21.71;42.31;100922.94;5092111;28;20434;-67
2021/05/22 10:00:24;;;;;;;4.63;1.00;;;;;;;21.73;42.55;100918.31;5091691;28;20052;-67
2021/05/22 10:02:57;;;;;;;5.72;1.88;;;;;;;21.69;42.85;100931.13;5091981;28;20048;-75
2021/05/22 10:05:29;;;;;;;4.97;1.40;;;;;;;21.65;42.29;100940.44;5091669;28;20134;-65
2021/05/22 10:07:57;;;;;;;4.57;1.33;;;;;;;21.56;42.72;100932.53;5091671;28;20055;-65
2021/05/22 10:10:41;;;;;;;7.38;1.30;;;;;;;21.47;42.86;100931.56;5091644;28;20044;-65
2021/05/22 10:13:08;;;;;;;3.60;0.98;;;;;;;21.37;42.66;100943.19;5091642;28;20050;-66
2021/05/22 10:15:35;;;;;;;3.70;0.90;;;;;;;21.31;43.05;100949.13;5091828;28;20063;-65
2021/05/22 10:18:05;;;;;;;4.45;1.20;;;;;;;21.25;43.20;100952.41;5091803;28;20052;-65
2021/05/22 10:20:32;;;;;;;5.60;1.50;;;;;;;21.21;43.28;100949.19;5092001;28;20048;-65
2021/05/22 10:23:00;;;;;;;4.38;1.23;;;;;;;21.21;43.40;100951.03;5091140;28;20200;-67
2021/05/22 10:25:27;;;;;;;7.10;1.00;;;;;;;21.21;43.46;100951.03;5091604;28;20052;-64
2021/05/22 10:27:54;;;;;;;4.03;1.17;;;;;;;21.18;44.06;100949.50;5091324;28;20484;-70
2021/05/22 10:30:22;;;;;;;6.28;1.30;;;;;;;21.15;43.49;100964.97;5091534;28;20044;-74
2021/05/22 10:32:48;;;;;;;3.60;0.90;;;;;;;21.13;43.30;100961.66;5091156;28;20052;-66
2021/05/22 10:35:23;;;;;;;6.75;1.20;;;;;;;21.13;43.09;100948.31;5091277;28;20043;-65
2021/05/22 10:37:52;;;;;;;6.57;1.05;;;;;;;21.15;43.70;100940.97;5091285;28;20055;-64
2021/05/22 10:40:42;;;;;;;4.30;1.50;;;;;;;21.16;43.99;100945.31;5091502;28;20485;-71
2021/05/22 10:43:09;;;;;;;5.13;1.48;;;;;;;21.13;43.59;100949.13;5091197;28;20051;-64
2021/05/22 10:45:37;;;;;;;4.63;1.35;;;;;;;21.09;43.79;100954.91;5091107;28;20051;-64
2021/05/22 10:48:15;;;;;;;5.03;1.10;;;;;;;21.03;44.20;100948.38;5091146;28;20044;-64
2021/05/22 10:50:47;;;;;;;2.95;0.98;;;;;;;20.96;44.11;100940.13;5091000;28;20048;-64
2021/05/22 10:53:32;;;;;;;4.38;1.20;;;;;;;20.91;44.05;100941.56;5090770;28;20051;-64
2021/05/22 10:56:07;;;;;;;6.43;1.10;;;;;;;20.87;44.63;100935.66;5090885;28;20047;-71
2021/05/22 10:58:36;;;;;;;3.25;1.10;;;;;;;20.83;44.74;100937.78;5090908;28;20503;-72
2021/05/22 11:01:47;;;;;;;3.97;1.10;;;;;;;20.80;44.63;100942.63;5090460;28;20059;-64
2021/05/22 11:04:13;;;;;;;3.30;1.10;;;;;;;20.75;44.91;100948.38;5090802;28;20055;-65
2021/05/22 11:06:48;;;;;;;4.32;1.20;;;;;;;20.72;44.61;100946.00;5090957;28;20047;-64
2021/05/22 11:09:34;;;;;;;4.95;1.58;;;;;;;20.68;45.07;100952.59;5072795;28;20052;-67
2021/05/22 11:12:02;;;;;;;4.15;1.00;;;;;;;20.66;44.69;100958.06;5090893;28;20074;-67
2021/05/22 11:14:52;;;;;;;2.70;1.00;;;;;;;20.60;45.20;100961.34;5090880;28;20458;-67
2021/05/22 11:17:29;;;;;;;3.60;0.93;;;;;;;20.57;45.07;100961.63;5090582;28;20097;-67
2021/05/22 11:19:59;;;;;;;4.50;1.30;;;;;;;20.53;44.88;100954.91;5090186;28;20054;-67
2021/05/22 11:22:34;;;;;;;3.75;0.90;;;;;;;20.47;45.28;100955.50;5090305;28;20084;-67
2021/05/22 11:25:07;;;;;;;6.35;1.10;;;;;;;20.45;45.31;100958.31;5090503;28;20044;-67
2021/05/22 11:27:53;;;;;;;6.18;1.05;;;;;;;20.46;45.40;100956.50;5090135;28;20059;-67
2021/05/22 11:30:27;;;;;;;6.40;1.27;;;;;;;20.45;45.49;100949.47;5090378;28;20052;-67
2021/05/22 11:32:58;;;;;;;4.90;1.35;;;;;;;20.44;45.24;100953.13;5090687;28;20399;-67